Lena, IL

11:19 AM CST on December 07, 2016 (GMT -0600)
South of Lena | | Change Station

Elev 919 ft 42.34 °N, 89.81 °W | Updated 11 minutes ago

Clear
Clear
21.2 °F
Feels Like 12 °F
N
8.0
Wind Variable Wind from SW
Gusts 17.0 mph

Today
High -- | Low -- °F
--% Chance of Precip.
Yesterday
High -- | Low -- °F
Precip. -- in
Pressure 30.11 in
Visibility 10.0 miles
Clouds Clear
Windchill 12 °F
Dew Point 16 °F
Humidity 81%
Rainfall in
Snow Depth Not available.
7:15 AM 4:26 PM
First Quarter, 54% visible
METAR KFEP 071655Z AUTO 26013G16KT 10SM CLR M05/M09 A3011 RMK AO2 T10551093
Pressure 30.11 in
Visibility 10.0 miles
Clouds Clear
Windchill 12 °F
Dew Point 16 °F
Humidity 81%
Rainfall in
Snow Depth Not available.
7:15 AM 4:26 PM
First Quarter, 54% visible
METAR KFEP 071655Z AUTO 26013G16KT 10SM CLR M05/M09 A3011 RMK AO2 T10551093

10-Day Weather Forecast

Almanac

Astronomy

Dec. 07, 2016 Rise Set
Actual Time
Civil Twilight
Nautical Twilight
Astronomical Twilight
Moon
Length of Visible Light
Length of Day
Tomorrow will be .
, % of the Moon is Illuminated

Today's Extremes

State Highs State Lows

Community

WunderPhotos

Upload Photos

1,956,151 photos uploaded!

WunderBlog® & News

Nearby

Air Quality

  Air Quality AQ Index Pollutant
Not available.

Snow Depth

Station Depth Elevation

Earthquake Activity

City Distance Mag. Time & Date
Minimum magnitude displayed is 2.5.

Coastal Water Temperatures

Place Temperature

Stations

Nearby Weather Stations

Station Location Temp. Windchill Dew Point Humidity Wind Precip. Elev Updated Type
                   

Watches & Warnings

There are currently no watches in effect.